• Join FlightAware (Why Join?)
  • Login
  • US Flag 
04:40AM EDT


 

Airport Tracker/Info


-or-


 

Live Flight TrackerFlight Track Log ✈ JZA8247 ✈ 29-Aug-2013 ✈ CYCG - CYVR

Flight Track Log - Related Links

Times and Time Zones

All times are in EDT time to prevent confusion due to time zone crossing. See the JZA8247 flight status page for this flight to view local times or setup timezone preferences in your user account.

Time Position Orientation Groundspeed Altitude Reporting Facility
EDT Latitude Longitude Course Direction KTS MPH feet Rate Location/Type
11:53AM 49.3243 -118.2712 276° West  Level FlightAware Approximate
11:53AM 49.3500 -118.1000 275° West 210 242 10,300  Level Vancouver Center
11:54AM 49.3302 -118.3650 275° West  Level FlightAware Approximate
11:54AM 49.3500 -118.2167 270° West 200 230 11,400  Level Vancouver Center
11:55AM 49.3372 -118.4586 278° West  Level FlightAware Approximate
11:55AM 49.3500 -118.2833 270° West 200 230 12,500  Level Vancouver Center
11:56AM 49.3456 -118.5519 278° West  Level FlightAware Approximate
11:56AM 49.3667 -118.3667 287° West 190 219 13,700  Level Vancouver Center
11:57AM 49.3532 -118.6452 280° West  Level FlightAware Approximate
11:57AM 49.3667 -118.4333 270° West 190 219 14,600  Level Vancouver Center
11:58AM 49.3635 -118.7381 280° West  Level FlightAware Approximate
11:58AM 49.3667 -118.5333 270° West 200 230 15,600  Level Vancouver Center
11:59AM 49.3700 -118.8318 275° West  Level FlightAware Approximate
11:59AM 49.3667 -118.6167 270° West 190 219 16,500  Level Vancouver Center
12:00PM 49.3667 -118.7000 270° West 200 230 17,200 720 Climbing Vancouver Center
12:01PM 49.3833 -118.7667 291° West 200 230 18,000 780 Climbing Vancouver Center
12:02PM 49.3833 -118.8667 270° West 200 230 18,800 660 Climbing Vancouver Center
12:03PM 49.3833 -118.9500 270° West 200 230 19,400 600 Climbing Vancouver Center
12:04PM 49.3833 -119.0500 270° West 210 242 20,000 600 Climbing Vancouver Center
12:05PM 49.4000 -119.1333 287° West 210 242 20,600 600 Climbing Vancouver Center
12:06PM 49.4000 -119.2333 270° West 220 253 21,200 540 Climbing Vancouver Center
12:07PM 49.4000 -119.3167 270° West 210 242 21,700 360 Climbing Vancouver Center
12:08PM 49.4000 -119.4167 270° West 220 253 22,000 120 Climbing Vancouver Center
12:09PM 49.4167 -119.5167 284° West 230 265 22,000  Level Vancouver Center
12:10PM 49.4333 -119.6167 284° West 240 276 22,000  Level Vancouver Center
12:11PM 49.4333 -119.7167 270° West 250 288 22,000  Level Vancouver Center
12:12PM 49.4333 -119.8167 270° West 250 288 22,000  Level Vancouver Center
12:13PM 49.4333 -119.9500 270° West 250 288 22,000  Level Vancouver Center
12:14PM 49.4500 -120.0500 284° West 250 288 22,000  Level Vancouver Center
12:15PM 49.4500 -120.1500 270° West 250 288 22,000  Level Vancouver Center
12:16PM 49.4500 -120.2500 270° West 250 288 22,000  Level Vancouver Center
12:17PM 49.4500 -120.3500 270° West 250 288 22,000  Level Vancouver Center
12:18PM 49.4500 -120.4667 270° West 260 299 22,000  Level Vancouver Center
12:19PM 49.4667 -120.5833 282° West 250 288 22,000  Level Vancouver Center
12:20PM 49.4667 -120.6833 270° West 250 288 22,000  Level Vancouver Center
12:21PM 49.4500 -120.8000 258° West 250 288 22,000  Level Vancouver Center
12:22PM 49.4500 -120.9000 270° West 250 288 22,000  Level Vancouver Center
12:23PM 49.4333 -121.0000 256° West 250 288 22,000  Level Vancouver Center
12:24PM 49.4333 -121.1333 270° West 250 288 22,000  Level Vancouver Center
12:25PM 49.4500 -121.2333 284° West 250 288 22,000 -600 Level Vancouver Center
12:26PM 49.4333 -121.3333 256° West 260 299 20,900 -1,200 Descending Vancouver Center
12:27PM 49.4333 -121.4667 270° West 290 334 19,600 -1,380 Descending Vancouver Center
12:28PM 49.4167 -121.6000 259° West 290 334 18,200 -1,380 Descending Vancouver Center
12:29PM 49.4167 -121.7167 270° West 280 322 16,900 -1,200 Descending Vancouver Center
12:30PM 49.4000 -121.8167 256° West 280 322 15,900 -780 Descending Vancouver Center
12:31PM 49.4000 -121.9333 270° West 270 311 15,400 -540 Descending Vancouver Center
12:32PM 49.4000 -122.0500 270° West 260 299 14,900 -600 Descending Vancouver Center
12:33PM 49.4000 -122.1500 270° West 270 311 14,300 -600 Descending Vancouver Center
12:34PM 49.4000 -122.2833 270° West 270 311 13,800 -600 Descending Vancouver Center
12:35PM 49.3667 -122.3833 243° Southwest 270 311 13,200 -600 Descending Vancouver Center
12:36PM 49.3333 -122.5000 246° West 260 299 12,700 -600 Descending Vancouver Center
12:37PM 49.3000 -122.5667 233° Southwest 260 299 12,100 -600 Descending Vancouver Center
12:38PM 49.2500 -122.6667 233° Southwest 260 299 11,500 -600 Descending Vancouver Center
12:39PM 49.2333 -122.7833 258° West 250 288 11,000 -540 Descending Vancouver Center
12:40PM 49.2167 -122.8833 256° West 240 276 10,500 -540 Descending Vancouver Center
12:41PM 49.2333 -122.9833 284° West 240 276 10,000 -600 Descending Vancouver Center
12:42PM 49.2500 -123.0833 284° West 240 276 9,400 -960 Descending Vancouver Center
12:43PM 49.2500 -123.1833 270° West 240 276 8,100 -1,500 Descending Vancouver Center
12:44PM 49.2667 -123.2833 284° West 240 276 6,500 -1,740 Descending Vancouver Center
12:45PM 49.2833 -123.3667 287° West 240 276 4,700 -1,320 Descending Vancouver Center
12:46PM 49.2833 -123.4667 270° West 240 276 3,900 -900 Descending Vancouver Center
12:47PM 49.2667 -123.5500 253° West 210 242 3,000 -960 Descending Vancouver Center
12:48PM 49.2333 -123.5000 136° Southeast 180 207 2,000 -540 Descending Vancouver Center
12:49PM 49.2167 -123.4333 111° Southeast 170 196 2,000  Level Vancouver Center
12:50PM 49.2000 -123.3667 111° Southeast 170 196 2,000 -300 Level Vancouver Center
12:51PM 49.2000 -123.2833 90° East 160 184 1,400 -660 Descending Vancouver Center
12:52PM 49.1833 -123.2333 117° Southeast 140 161 700 -720 Descending Vancouver Center